createdAt,value
2018-09-18T00:01:19.224Z,12.50
2018-09-18T00:03:46.579Z,12.20
2018-09-18T00:06:13.894Z,12.00
2018-09-18T00:08:41.273Z,12.00
2018-09-18T00:11:08.615Z,12.00
2018-09-18T00:13:36.019Z,12.20
2018-09-18T00:16:03.532Z,12.30
2018-09-18T00:18:31.109Z,12.40
2018-09-18T00:20:58.447Z,12.50
2018-09-18T00:23:25.771Z,12.30
2018-09-18T00:25:53.081Z,12.30
2018-09-18T00:28:20.461Z,12.30
2018-09-18T00:30:48.018Z,12.30
2018-09-18T00:33:15.339Z,12.20
2018-09-18T00:35:42.807Z,12.20
2018-09-18T00:38:10.363Z,12.20
2018-09-18T00:40:37.736Z,12.20
2018-09-18T00:43:05.087Z,12.20
2018-09-18T00:45:32.641Z,12.20
2018-09-18T00:48:00.011Z,12.20
2018-09-18T00:50:27.397Z,12.30
2018-09-18T00:52:54.712Z,12.40
2018-09-18T00:55:22.058Z,12.40
2018-09-18T00:57:49.431Z,12.30
2018-09-18T01:00:16.971Z,12.10
2018-09-18T01:02:44.374Z,12.00
2018-09-18T01:05:11.821Z,12.00
2018-09-18T01:07:39.131Z,12.10
2018-09-18T01:10:06.551Z,12.10
2018-09-18T01:12:33.851Z,12.10
2018-09-18T01:15:01.319Z,12.10
2018-09-18T01:17:28.762Z,12.00
2018-09-18T01:19:56.149Z,12.00
2018-09-18T01:22:23.574Z,12.10
2018-09-18T01:24:51.033Z,12.20
2018-09-18T01:27:18.414Z,12.20
2018-09-18T01:29:45.749Z,12.20
2018-09-18T01:32:13.134Z,12.10
2018-09-18T01:34:40.462Z,11.90
2018-09-18T01:37:07.851Z,11.40
2018-09-18T01:39:36.218Z,11.30
2018-09-18T01:42:03.554Z,11.30
2018-09-18T01:44:30.931Z,11.30
2018-09-18T01:46:58.268Z,11.40
2018-09-18T01:49:25.641Z,11.40
2018-09-18T01:51:52.986Z,11.30
2018-09-18T01:54:20.576Z,11.20
2018-09-18T01:56:47.990Z,11.30
2018-09-18T01:59:15.380Z,11.40
2018-09-18T02:01:42.746Z,11.40
2018-09-18T02:04:10.175Z,11.50
2018-09-18T02:06:37.548Z,11.60
2018-09-18T02:09:05.702Z,11.60
2018-09-18T02:11:33.101Z,11.60
2018-09-18T02:14:00.409Z,11.60
2018-09-18T02:16:27.997Z,11.60
2018-09-18T02:18:55.431Z,11.50
2018-09-18T02:21:23.341Z,11.50
2018-09-18T02:23:50.663Z,11.60
2018-09-18T02:26:18.143Z,11.70
2018-09-18T02:28:45.680Z,11.80
2018-09-18T02:31:13.058Z,11.80
2018-09-18T02:33:40.416Z,11.70
2018-09-18T02:36:07.847Z,11.70
2018-09-18T02:38:35.231Z,11.70
2018-09-18T02:41:02.555Z,11.80
2018-09-18T02:43:30.100Z,11.80
2018-09-18T02:45:57.512Z,11.70
2018-09-18T02:48:24.848Z,11.60
2018-09-18T02:50:53.038Z,11.60
2018-09-18T02:53:20.920Z,11.60
2018-09-18T02:55:48.263Z,11.50
2018-09-18T02:58:15.625Z,11.50
2018-09-18T03:00:42.964Z,11.50
2018-09-18T03:03:11.675Z,11.60
2018-09-18T03:05:39.075Z,11.60
2018-09-18T03:08:06.362Z,11.60
2018-09-18T03:10:34.935Z,11.60
2018-09-18T03:13:02.325Z,11.70
2018-09-18T03:15:29.673Z,11.70
2018-09-18T03:17:57.506Z,11.60
2018-09-18T03:20:26.640Z,11.60
2018-09-18T03:22:54.196Z,11.40
2018-09-18T03:25:21.565Z,11.20
2018-09-18T03:27:48.929Z,11.00
2018-09-18T03:30:16.274Z,11.00
2018-09-18T03:32:43.703Z,11.00
2018-09-18T03:35:11.088Z,10.90
2018-09-18T03:37:38.667Z,10.90
2018-09-18T03:40:07.440Z,10.80
2018-09-18T03:42:34.855Z,10.90
2018-09-18T03:45:02.347Z,10.90
2018-09-18T03:47:29.678Z,10.90
2018-09-18T03:49:57.068Z,11.00
2018-09-18T03:52:24.499Z,11.00
2018-09-18T03:54:51.862Z,10.90
2018-09-18T03:57:19.325Z,10.90
2018-09-18T03:59:46.771Z,10.80
2018-09-18T04:03:56.439Z,10.70
2018-09-18T04:06:24.491Z,10.70
2018-09-18T04:08:52.584Z,10.70
2018-09-18T04:11:20.652Z,10.70
2018-09-18T04:13:48.845Z,10.70
2018-09-18T04:16:16.908Z,10.80
2018-09-18T04:18:44.982Z,10.80
2018-09-18T04:21:13.054Z,10.90
2018-09-18T04:23:41.119Z,10.90
2018-09-18T04:26:09.196Z,10.90
2018-09-18T04:28:37.292Z,11.00
2018-09-18T04:31:05.445Z,11.00
2018-09-18T04:33:33.630Z,11.00
2018-09-18T04:36:01.755Z,11.10
2018-09-18T04:38:29.775Z,11.10
2018-09-18T04:40:57.844Z,10.90
2018-09-18T04:43:25.891Z,10.80
2018-09-18T04:45:54.051Z,10.80
2018-09-18T04:48:22.180Z,10.80
2018-09-18T04:50:50.249Z,10.70
2018-09-18T04:53:18.403Z,10.70
2018-09-18T04:55:46.535Z,10.80
2018-09-18T04:58:14.544Z,10.80
2018-09-18T05:00:42.638Z,10.90
2018-09-18T05:03:10.687Z,11.00
2018-09-18T05:05:38.845Z,11.10
2018-09-18T05:08:06.955Z,11.10
2018-09-18T05:10:35.124Z,11.20
2018-09-18T05:13:03.317Z,11.20
2018-09-18T05:15:31.365Z,11.30
2018-09-18T05:17:59.680Z,11.30
2018-09-18T05:20:27.812Z,11.40
2018-09-18T05:22:56.006Z,11.40
2018-09-18T05:25:24.296Z,11.40
2018-09-18T05:27:52.463Z,11.40
2018-09-18T05:30:20.539Z,11.40
2018-09-18T05:32:48.785Z,11.40
2018-09-18T05:35:17.104Z,11.40
2018-09-18T05:37:45.167Z,11.50
2018-09-18T05:40:13.236Z,11.60
2018-09-18T05:42:41.285Z,11.70
2018-09-18T05:45:09.467Z,11.80
2018-09-18T05:47:37.653Z,11.90
2018-09-18T05:50:05.939Z,11.90
2018-09-18T05:52:33.992Z,12.00
2018-09-18T05:55:02.197Z,12.00
2018-09-18T05:57:30.236Z,12.10
2018-09-18T05:59:58.344Z,12.30
2018-09-18T06:02:26.400Z,12.40
2018-09-18T06:04:54.479Z,12.60
2018-09-18T06:07:22.529Z,12.80
2018-09-18T06:09:50.728Z,12.90
2018-09-18T06:12:18.946Z,13.10
2018-09-18T06:14:46.956Z,13.30
2018-09-18T06:17:15.068Z,13.50
2018-09-18T06:19:43.216Z,13.80
2018-09-18T06:22:11.305Z,13.90
2018-09-18T06:24:39.291Z,14.00
2018-09-18T06:27:08.209Z,14.20
2018-09-18T06:29:36.343Z,14.40
2018-09-18T06:32:04.532Z,14.60
2018-09-18T06:34:32.718Z,14.70
2018-09-18T06:37:00.951Z,14.80
2018-09-18T06:39:28.928Z,14.90
2018-09-18T06:41:57.003Z,15.10
2018-09-18T06:44:25.080Z,15.20
2018-09-18T06:46:53.179Z,15.30
2018-09-18T06:49:21.212Z,15.50
2018-09-18T06:51:49.314Z,15.70
2018-09-18T06:54:17.361Z,15.80
2018-09-18T06:56:45.452Z,15.90
2018-09-18T06:59:13.489Z,16.10
2018-09-18T07:01:41.617Z,16.20
2018-09-18T07:04:09.768Z,16.40
2018-09-18T07:06:37.868Z,16.50
2018-09-18T07:09:07.429Z,16.60
2018-09-18T07:11:35.782Z,16.70
2018-09-18T07:14:03.879Z,16.80
2018-09-18T07:16:31.979Z,17.00
2018-09-18T07:19:00.066Z,17.10
2018-09-18T07:21:28.117Z,17.20
2018-09-18T07:23:56.295Z,17.30
2018-09-18T07:26:24.359Z,17.40
2018-09-18T07:28:52.653Z,17.60
2018-09-18T07:31:20.811Z,17.70
2018-09-18T07:33:49.053Z,17.80
2018-09-18T07:36:17.059Z,18.00
2018-09-18T07:38:45.260Z,18.10
2018-09-18T07:41:13.424Z,18.30
2018-09-18T07:43:41.435Z,18.30
2018-09-18T07:46:09.447Z,18.40
2018-09-18T07:48:38.308Z,18.50
2018-09-18T07:51:08.405Z,18.50
2018-09-18T07:53:36.592Z,18.70
2018-09-18T07:56:04.609Z,18.80
2018-09-18T07:58:32.668Z,18.90
2018-09-18T08:01:00.876Z,19.00
2018-09-18T08:03:28.956Z,19.20
2018-09-18T08:05:57.009Z,19.20
2018-09-18T08:08:25.117Z,19.40
2018-09-18T08:10:53.299Z,19.50
2018-09-18T08:13:21.347Z,19.60
2018-09-18T08:15:49.555Z,19.60
2018-09-18T08:18:17.719Z,19.70
2018-09-18T08:20:45.754Z,19.90
2018-09-18T08:23:13.858Z,20.10
2018-09-18T08:25:41.992Z,20.10
2018-09-18T08:28:12.502Z,20.20
2018-09-18T08:30:40.501Z,20.50
2018-09-18T08:33:08.619Z,20.60
2018-09-18T08:35:36.657Z,20.60
2018-09-18T08:38:04.948Z,20.70
2018-09-18T08:40:33.045Z,20.90
2018-09-18T08:43:01.109Z,21.20
2018-09-18T08:45:29.181Z,21.20
2018-09-18T08:47:57.239Z,21.30
2018-09-18T08:50:25.312Z,21.50
2018-09-18T08:52:53.384Z,21.50
2018-09-18T08:55:21.463Z,21.60
2018-09-18T08:57:49.616Z,21.60
2018-09-18T09:00:17.789Z,21.70
2018-09-18T09:02:45.918Z,21.80
2018-09-18T09:05:13.946Z,21.90
2018-09-18T09:07:42.131Z,21.90
2018-09-18T09:10:10.222Z,22.00
2018-09-18T09:12:38.399Z,22.10
2018-09-18T09:15:06.599Z,22.10
2018-09-18T09:17:34.652Z,22.20
2018-09-18T09:20:02.921Z,22.20
2018-09-18T09:22:31.155Z,22.20
2018-09-18T09:24:59.164Z,22.30
2018-09-18T09:27:27.253Z,22.40
2018-09-18T09:29:55.372Z,22.40
2018-09-18T09:32:23.447Z,22.50
2018-09-18T09:34:51.990Z,22.50
2018-09-18T09:37:20.187Z,22.60
2018-09-18T09:39:48.199Z,22.80
2018-09-18T09:42:16.299Z,22.80
2018-09-18T09:44:44.332Z,22.90
2018-09-18T09:47:12.624Z,23.00
2018-09-18T09:49:41.077Z,23.00
2018-09-18T09:52:09.283Z,23.10
2018-09-18T09:54:37.335Z,23.30
2018-09-18T09:57:05.536Z,23.30
2018-09-18T09:59:33.594Z,23.30
2018-09-18T10:02:07.201Z,23.30
2018-09-18T10:04:35.239Z,23.30
2018-09-18T10:07:03.461Z,23.50
2018-09-18T10:09:31.523Z,23.60
2018-09-18T10:11:59.715Z,23.70
2018-09-18T10:14:27.908Z,23.80
2018-09-18T10:16:55.924Z,23.80
2018-09-18T10:19:24.033Z,23.90
2018-09-18T10:21:52.077Z,23.90
2018-09-18T10:24:20.312Z,24.00
2018-09-18T10:26:48.529Z,24.10
2018-09-18T10:29:16.546Z,24.10
2018-09-18T10:31:44.626Z,24.10
2018-09-18T10:34:12.690Z,24.20
2018-09-18T10:36:40.703Z,24.30
2018-09-18T10:39:10.047Z,24.40
2018-09-18T10:41:38.303Z,24.40
2018-09-18T10:44:06.273Z,24.50
2018-09-18T10:46:34.602Z,24.60
2018-09-18T10:49:02.732Z,24.70
2018-09-18T10:51:30.816Z,24.70
2018-09-18T10:53:58.877Z,24.70
2018-09-18T10:56:27.075Z,24.80
2018-09-18T10:58:55.128Z,24.80
2018-09-18T11:01:23.314Z,24.80
2018-09-18T11:03:51.396Z,24.80
2018-09-18T11:06:19.448Z,24.90
2018-09-18T11:08:47.543Z,24.90
2018-09-18T11:11:15.737Z,25.00
2018-09-18T11:13:43.971Z,25.10
2018-09-18T11:16:12.213Z,25.20
2018-09-18T11:18:40.136Z,25.30
2018-09-18T11:21:08.302Z,25.30
2018-09-18T11:23:36.389Z,25.30
2018-09-18T11:26:04.563Z,25.40
2018-09-18T11:28:32.819Z,25.30
2018-09-18T11:31:00.899Z,25.40
2018-09-18T11:33:29.200Z,25.50
2018-09-18T11:35:57.256Z,25.60
2018-09-18T11:38:25.345Z,25.70
2018-09-18T11:40:53.539Z,25.70
2018-09-18T11:43:21.570Z,25.60
2018-09-18T11:45:49.856Z,25.70
2018-09-18T11:48:17.820Z,25.80
2018-09-18T11:50:45.907Z,25.90
2018-09-18T11:53:13.957Z,25.80
2018-09-18T11:55:42.053Z,25.90
2018-09-18T11:58:10.235Z,26.00
2018-09-18T12:00:38.324Z,26.00
2018-09-18T12:03:06.500Z,25.90
2018-09-18T12:05:34.656Z,26.00
2018-09-18T12:08:02.704Z,26.00
2018-09-18T12:10:30.919Z,26.10
2018-09-18T12:12:59.003Z,26.00
2018-09-18T12:15:27.024Z,26.10
2018-09-18T12:17:55.119Z,26.20
2018-09-18T12:20:23.176Z,26.20
2018-09-18T12:22:51.275Z,26.20
2018-09-18T12:25:19.241Z,26.20
2018-09-18T12:27:47.373Z,26.10
2018-09-18T12:30:15.358Z,26.20
2018-09-18T12:32:43.479Z,26.10
2018-09-18T12:35:11.555Z,26.00
2018-09-18T12:37:39.599Z,26.10
2018-09-18T12:40:07.697Z,26.00
2018-09-18T12:42:35.839Z,26.00
2018-09-18T12:45:04.097Z,26.10
2018-09-18T12:47:32.167Z,26.20
2018-09-18T12:50:00.568Z,26.20
2018-09-18T12:52:28.225Z,26.20
2018-09-18T12:54:56.328Z,26.20
2018-09-18T12:57:24.472Z,26.20
2018-09-18T12:59:52.654Z,26.20
2018-09-18T13:02:20.628Z,26.30
2018-09-18T13:04:48.728Z,26.30
2018-09-18T13:07:16.783Z,26.30
2018-09-18T13:09:44.982Z,26.40
2018-09-18T13:12:13.035Z,26.60
2018-09-18T13:14:41.126Z,26.60
2018-09-18T13:17:09.313Z,26.50
2018-09-18T13:19:37.341Z,26.50
2018-09-18T13:22:05.549Z,26.50
2018-09-18T13:24:33.612Z,26.50
2018-09-18T13:27:01.744Z,26.60
2018-09-18T13:29:29.727Z,26.60
2018-09-18T13:31:57.938Z,26.60
2018-09-18T13:34:26.194Z,26.50
2018-09-18T13:36:54.327Z,26.50
2018-09-18T13:39:22.344Z,26.50
2018-09-18T13:41:50.537Z,26.40
2018-09-18T13:44:18.612Z,26.50
2018-09-18T13:46:46.649Z,26.50
2018-09-18T13:49:14.765Z,26.60
2018-09-18T13:51:42.945Z,26.70
2018-09-18T13:54:11.001Z,26.60
2018-09-18T13:56:39.076Z,26.60
2018-09-18T13:59:07.152Z,26.60
2018-09-18T14:01:35.492Z,26.50
2018-09-18T14:04:03.496Z,26.60
2018-09-18T14:06:31.558Z,26.50
2018-09-18T14:08:59.744Z,26.40
2018-09-18T14:11:27.747Z,26.40
2018-09-18T14:13:56.000Z,26.40
2018-09-18T14:16:24.154Z,26.40
2018-09-18T14:18:52.273Z,26.50
2018-09-18T14:21:20.338Z,26.60
2018-09-18T14:23:48.359Z,26.60
2018-09-18T14:26:16.603Z,26.70
2018-09-18T14:28:44.516Z,26.70
2018-09-18T14:31:12.613Z,26.60
2018-09-18T14:33:40.697Z,26.50
2018-09-18T14:36:08.857Z,26.50
2018-09-18T14:38:37.038Z,26.60
2018-09-18T14:41:05.284Z,26.50
2018-09-18T14:43:33.603Z,26.60
2018-09-18T14:46:01.654Z,26.60
2018-09-18T14:48:29.868Z,26.60
2018-09-18T14:50:57.930Z,26.70
2018-09-18T14:53:26.050Z,26.60
2018-09-18T14:55:54.166Z,26.60
2018-09-18T14:58:22.205Z,26.60
2018-09-18T15:00:50.304Z,26.60
2018-09-18T15:03:18.477Z,26.60
2018-09-18T15:05:46.556Z,26.50
2018-09-18T15:08:14.753Z,26.50
2018-09-18T15:10:42.926Z,26.50
2018-09-18T15:13:10.980Z,26.50
2018-09-18T15:15:39.117Z,26.50
2018-09-18T15:18:07.138Z,26.50
2018-09-18T15:20:35.292Z,26.50
2018-09-18T15:23:03.477Z,26.50
2018-09-18T15:25:31.540Z,26.50
2018-09-18T15:27:59.677Z,26.50
2018-09-18T15:30:27.711Z,26.50
2018-09-18T15:32:55.772Z,26.50
2018-09-18T15:35:23.880Z,26.50
2018-09-18T15:37:52.110Z,26.40
2018-09-18T15:40:20.296Z,26.40
2018-09-18T15:42:48.386Z,26.50
2018-09-18T15:45:16.563Z,26.40
2018-09-18T15:47:44.601Z,26.30
2018-09-18T15:50:12.787Z,26.20
2018-09-18T15:52:41.113Z,26.20
2018-09-18T15:55:09.199Z,26.20
2018-09-18T15:57:37.247Z,26.10
2018-09-18T16:00:05.474Z,26.00
2018-09-18T16:02:33.568Z,25.80
2018-09-18T16:05:01.736Z,25.30
2018-09-18T16:07:29.919Z,25.00
2018-09-18T16:09:58.058Z,24.90
2018-09-18T16:12:26.067Z,24.80
2018-09-18T16:14:54.188Z,24.50
2018-09-18T16:17:22.328Z,24.20
2018-09-18T16:19:49.683Z,24.10
2018-09-18T16:22:16.999Z,23.90
2018-09-18T16:24:44.425Z,23.70
2018-09-18T16:27:11.737Z,23.60
2018-09-18T16:29:39.093Z,23.50
2018-09-18T16:32:06.448Z,23.20
2018-09-18T16:34:33.812Z,23.00
2018-09-18T16:37:01.150Z,22.80
2018-09-18T16:39:28.573Z,22.70
2018-09-18T16:41:56.509Z,22.60
2018-09-18T16:44:24.702Z,22.50
2018-09-18T16:46:52.083Z,22.30
2018-09-18T16:49:19.378Z,22.20
2018-09-18T16:51:46.770Z,22.00
2018-09-18T16:54:14.085Z,22.00
2018-09-18T16:56:41.459Z,21.90
2018-09-18T16:59:08.789Z,21.80
2018-09-18T17:01:36.175Z,21.60
2018-09-18T17:04:03.524Z,21.50
2018-09-18T17:06:30.866Z,21.50
2018-09-18T17:08:58.231Z,21.70
2018-09-18T17:11:25.579Z,22.00
2018-09-18T17:13:52.959Z,22.00
2018-09-18T17:16:20.298Z,22.10
2018-09-18T17:18:47.657Z,22.10
2018-09-18T17:21:14.982Z,22.00
2018-09-18T17:23:42.359Z,22.00
2018-09-18T17:26:09.691Z,21.90
2018-09-18T17:28:37.223Z,21.90
2018-09-18T17:31:04.662Z,21.80
2018-09-18T17:33:31.967Z,21.90
2018-09-18T17:35:59.248Z,21.80
2018-09-18T17:38:26.686Z,21.80
2018-09-18T17:40:54.184Z,21.70
2018-09-18T17:43:21.722Z,21.60
2018-09-18T17:45:49.081Z,21.60
2018-09-18T17:48:16.421Z,21.50
2018-09-18T17:50:43.816Z,21.60
2018-09-18T17:53:11.147Z,21.60
2018-09-18T17:55:38.486Z,21.60
2018-09-18T17:58:05.872Z,21.50
2018-09-18T18:00:33.195Z,21.40
2018-09-18T18:03:00.571Z,21.20
2018-09-18T18:05:28.004Z,21.20
2018-09-18T18:07:55.285Z,21.10
2018-09-18T18:10:22.814Z,21.00
2018-09-18T18:12:50.226Z,21.00
2018-09-18T18:15:17.547Z,21.00
2018-09-18T18:17:44.924Z,20.90
2018-09-18T18:20:12.296Z,20.80
2018-09-18T18:22:39.745Z,20.60
2018-09-18T18:25:07.331Z,20.50
2018-09-18T18:27:34.637Z,20.40
2018-09-18T18:30:02.020Z,20.30
2018-09-18T18:32:29.443Z,20.30
2018-09-18T18:34:56.722Z,20.20
2018-09-18T18:37:24.064Z,20.10
2018-09-18T18:39:51.576Z,20.00
2018-09-18T18:42:20.019Z,20.00
2018-09-18T18:44:47.500Z,19.90
2018-09-18T18:47:14.822Z,19.80
2018-09-18T18:49:42.294Z,19.70
2018-09-18T18:52:09.627Z,19.60
2018-09-18T18:54:37.061Z,19.50
2018-09-18T18:57:04.593Z,19.40
2018-09-18T18:59:31.948Z,19.30
2018-09-18T19:01:59.463Z,19.20
2018-09-18T19:04:27.045Z,19.10
2018-09-18T19:06:54.469Z,19.10
2018-09-18T19:09:21.828Z,19.00
2018-09-18T19:11:49.139Z,18.80
2018-09-18T19:14:16.681Z,18.70
2018-09-18T19:16:44.477Z,18.60
2018-09-18T19:19:11.898Z,18.50
2018-09-18T19:21:40.227Z,18.40
2018-09-18T19:24:08.026Z,18.30
2018-09-18T19:26:35.713Z,18.30
2018-09-18T19:29:03.066Z,18.20
2018-09-18T19:31:30.487Z,18.10
2018-09-18T19:33:57.967Z,18.10
2018-09-18T19:36:25.446Z,18.10
2018-09-18T19:38:52.800Z,18.00
2018-09-18T19:41:20.154Z,18.00
2018-09-18T19:43:47.496Z,18.00
2018-09-18T19:46:14.850Z,18.00
2018-09-18T19:48:42.213Z,18.00
2018-09-18T19:51:09.788Z,18.00
2018-09-18T19:53:37.143Z,17.90
2018-09-18T19:56:04.689Z,17.90
2018-09-18T19:58:32.059Z,17.80
2018-09-18T20:00:59.427Z,17.80
2018-09-18T20:03:26.798Z,17.70
2018-09-18T20:05:54.232Z,17.80
2018-09-18T20:08:21.563Z,17.80
2018-09-18T20:10:48.945Z,17.80
2018-09-18T20:13:16.403Z,17.80
2018-09-18T20:15:43.849Z,17.80
2018-09-18T20:18:11.257Z,17.80
2018-09-18T20:20:38.741Z,17.80
2018-09-18T20:23:06.251Z,17.80
2018-09-18T20:25:33.656Z,17.90
2018-09-18T20:28:01.049Z,17.80
2018-09-18T20:30:28.489Z,17.80
2018-09-18T20:32:55.977Z,17.80
2018-09-18T20:35:23.335Z,18.00
2018-09-18T20:37:50.786Z,18.10
2018-09-18T20:40:18.167Z,18.00
2018-09-18T20:42:45.495Z,18.00
2018-09-18T20:45:12.896Z,17.90
2018-09-18T20:47:40.226Z,17.80
2018-09-18T20:50:07.589Z,17.80
2018-09-18T20:52:34.911Z,17.80
2018-09-18T20:55:02.299Z,17.80
2018-09-18T20:57:29.623Z,17.80
2018-09-18T20:59:56.994Z,17.70
2018-09-18T21:02:24.329Z,17.70
2018-09-18T21:04:51.815Z,17.60
2018-09-18T21:07:19.134Z,17.60
2018-09-18T21:09:46.629Z,17.50
2018-09-18T21:12:13.990Z,17.50
2018-09-18T21:14:41.414Z,17.50
2018-09-18T21:17:08.748Z,17.40
2018-09-18T21:19:36.124Z,17.30
2018-09-18T21:22:03.538Z,17.30
2018-09-18T21:24:30.970Z,17.20
2018-09-18T21:26:58.455Z,17.10
2018-09-18T21:29:25.761Z,17.10
2018-09-18T21:31:53.254Z,17.10
2018-09-18T21:34:20.671Z,17.00
2018-09-18T21:36:48.055Z,17.00
2018-09-18T21:39:15.412Z,17.00
2018-09-18T21:41:42.739Z,17.00
2018-09-18T21:44:10.083Z,17.00
2018-09-18T21:46:37.459Z,17.00
2018-09-18T21:49:04.850Z,17.00
2018-09-18T21:51:32.170Z,17.10
2018-09-18T21:53:59.659Z,17.10
2018-09-18T21:56:26.985Z,17.10
2018-09-18T21:58:54.385Z,17.00
2018-09-18T22:01:21.757Z,17.00
2018-09-18T22:03:49.079Z,17.00
2018-09-18T22:06:16.420Z,17.10
2018-09-18T22:08:43.892Z,17.10
2018-09-18T22:11:11.234Z,17.20
2018-09-18T22:13:38.585Z,17.20
2018-09-18T22:16:05.960Z,17.20
2018-09-18T22:18:33.290Z,17.10
2018-09-18T22:21:00.668Z,17.10
2018-09-18T22:23:27.998Z,17.10
2018-09-18T22:25:55.359Z,17.10
2018-09-18T22:28:22.764Z,17.00
2018-09-18T22:30:50.075Z,17.00
2018-09-18T22:33:17.494Z,17.00
2018-09-18T22:35:44.804Z,17.00
2018-09-18T22:38:12.147Z,17.00
2018-09-18T22:40:39.514Z,16.90
2018-09-18T22:43:06.898Z,16.90
2018-09-18T22:45:34.335Z,17.00
2018-09-18T22:48:01.661Z,17.00
2018-09-18T22:50:29.154Z,16.90
2018-09-18T22:52:56.514Z,16.90
2018-09-18T22:55:23.963Z,16.90
2018-09-18T22:57:51.334Z,17.00
2018-09-18T23:00:18.655Z,17.10
2018-09-18T23:02:46.154Z,17.10
2018-09-18T23:05:13.415Z,17.10
2018-09-18T23:07:40.744Z,17.10
2018-09-18T23:10:08.080Z,17.00
2018-09-18T23:12:35.474Z,17.00
2018-09-18T23:15:02.918Z,17.00
2018-09-18T23:17:30.264Z,17.00
2018-09-18T23:19:57.632Z,17.00
2018-09-18T23:22:24.962Z,17.00
2018-09-18T23:24:52.342Z,16.90
2018-09-18T23:27:19.745Z,16.90
2018-09-18T23:29:47.064Z,16.90
2018-09-18T23:32:14.429Z,16.90
2018-09-18T23:34:41.773Z,16.90
2018-09-18T23:37:09.122Z,16.80
2018-09-18T23:39:36.463Z,16.80
2018-09-18T23:42:03.992Z,16.70
2018-09-18T23:44:31.390Z,16.60
2018-09-18T23:46:58.854Z,16.60
2018-09-18T23:49:26.203Z,16.40
2018-09-18T23:51:53.574Z,16.30
2018-09-18T23:54:20.907Z,16.10
2018-09-18T23:56:48.380Z,15.90
2018-09-18T23:59:15.717Z,15.70
